createdAt,value
2023-01-19T00:00:29.611Z,8.9
2023-01-19T00:01:29.551Z,8.9
2023-01-19T00:02:29.580Z,8.9
2023-01-19T00:03:29.544Z,8.9
2023-01-19T00:04:29.518Z,8.9
2023-01-19T00:05:29.536Z,8.8
2023-01-19T00:06:29.565Z,8.8
2023-01-19T00:07:29.531Z,8.8
2023-01-19T00:08:29.519Z,8.8
2023-01-19T00:09:29.533Z,8.8
2023-01-19T00:10:29.540Z,8.7
2023-01-19T00:11:29.536Z,8.7
2023-01-19T00:12:29.523Z,8.8
2023-01-19T00:13:29.534Z,8.8
2023-01-19T00:14:29.579Z,8.8
2023-01-19T00:15:29.549Z,8.8
2023-01-19T00:16:29.608Z,8.8
2023-01-19T00:17:29.539Z,8.8
2023-01-19T00:18:29.553Z,8.8
2023-01-19T00:19:29.532Z,8.8
2023-01-19T00:20:29.537Z,8.8
2023-01-19T00:21:29.535Z,8.8
2023-01-19T00:22:29.589Z,8.8
2023-01-19T00:23:29.565Z,8.8
2023-01-19T00:24:29.542Z,8.8
2023-01-19T00:25:29.542Z,8.8
2023-01-19T00:26:29.580Z,8.7
2023-01-19T00:27:29.538Z,8.8
2023-01-19T00:28:29.551Z,8.7
2023-01-19T00:29:29.539Z,8.8
2023-01-19T00:30:29.621Z,8.8
2023-01-19T00:31:29.589Z,8.8
2023-01-19T00:32:29.551Z,8.8
2023-01-19T00:33:29.538Z,8.8
2023-01-19T00:34:29.551Z,8.8
2023-01-19T00:35:29.536Z,8.9
2023-01-19T00:36:29.538Z,8.9
2023-01-19T00:37:29.546Z,8.9
2023-01-19T00:38:29.513Z,8.9
2023-01-19T00:39:29.504Z,8.9
2023-01-19T00:40:29.519Z,8.9
2023-01-19T00:41:29.542Z,8.9
2023-01-19T00:42:29.510Z,8.9
2023-01-19T00:43:29.528Z,8.9
2023-01-19T00:44:29.501Z,8.9
2023-01-19T00:45:29.652Z,8.8
2023-01-19T00:46:29.562Z,8.8
2023-01-19T00:47:29.550Z,8.9
2023-01-19T00:48:29.525Z,8.9
2023-01-19T00:49:29.587Z,8.9
2023-01-19T00:50:29.536Z,8.8
2023-01-19T00:51:29.519Z,8.9
2023-01-19T00:52:29.563Z,8.9
2023-01-19T00:53:29.532Z,8.9
2023-01-19T00:54:29.520Z,8.9
2023-01-19T00:55:29.528Z,8.9
2023-01-19T00:56:29.651Z,8.8
2023-01-19T00:57:29.573Z,8.9
2023-01-19T00:58:29.556Z,8.9
2023-01-19T00:59:29.510Z,8.9
2023-01-19T01:00:29.665Z,8.9
2023-01-19T01:01:45.783Z,8.9
2023-01-19T01:02:29.732Z,8.9
2023-01-19T01:03:29.525Z,8.9
2023-01-19T01:04:29.750Z,8.9
2023-01-19T01:05:29.517Z,8.9
2023-01-19T01:06:29.536Z,8.9
2023-01-19T01:07:29.562Z,8.9
2023-01-19T01:08:29.544Z,8.8
2023-01-19T01:09:29.519Z,8.8
2023-01-19T01:10:29.522Z,8.8
2023-01-19T01:11:29.567Z,8.9
2023-01-19T01:12:29.549Z,8.8
2023-01-19T01:13:29.851Z,8.8
2023-01-19T01:14:29.503Z,8.8
2023-01-19T01:15:29.706Z,8.8
2023-01-19T01:16:29.573Z,8.8
2023-01-19T01:17:29.535Z,8.8
2023-01-19T01:18:29.564Z,8.9
2023-01-19T01:19:29.557Z,8.9
2023-01-19T01:20:29.566Z,8.9
2023-01-19T01:21:29.498Z,8.9
2023-01-19T01:22:29.516Z,8.9
2023-01-19T01:23:29.573Z,8.9
2023-01-19T01:24:29.528Z,8.8
2023-01-19T01:25:29.527Z,8.9
2023-01-19T01:26:29.486Z,8.9
2023-01-19T01:27:29.715Z,8.9
2023-01-19T01:28:29.498Z,8.9
2023-01-19T01:29:29.506Z,8.9
2023-01-19T01:30:29.546Z,8.9
2023-01-19T01:31:29.624Z,8.9
2023-01-19T01:32:29.528Z,8.9
2023-01-19T01:33:40.884Z,8.9
2023-01-19T01:34:29.536Z,8.9
2023-01-19T01:35:29.514Z,8.9
2023-01-19T01:36:29.541Z,8.9
2023-01-19T01:37:29.514Z,8.9
2023-01-19T01:38:29.552Z,8.9
2023-01-19T01:39:29.534Z,8.9
2023-01-19T01:40:29.523Z,8.9
2023-01-19T01:41:29.552Z,8.9
2023-01-19T01:42:29.523Z,8.9
2023-01-19T01:43:29.518Z,8.9
2023-01-19T01:44:29.529Z,8.9
2023-01-19T01:45:29.723Z,8.9
2023-01-19T01:46:29.495Z,8.9
2023-01-19T01:47:29.546Z,8.9
2023-01-19T01:48:29.490Z,8.9
2023-01-19T01:49:29.518Z,8.9
2023-01-19T01:50:29.492Z,8.9
2023-01-19T01:51:29.511Z,8.9
2023-01-19T01:52:29.511Z,8.8
2023-01-19T01:53:29.487Z,8.8
2023-01-19T01:54:29.471Z,8.8
2023-01-19T01:55:29.485Z,8.8
2023-01-19T01:56:29.553Z,8.8
2023-01-19T01:57:29.563Z,8.9
2023-01-19T01:58:29.546Z,8.9
2023-01-19T01:59:29.512Z,8.9
2023-01-19T02:00:29.490Z,8.9
2023-01-19T02:01:29.623Z,8.9
2023-01-19T02:02:29.548Z,8.9
2023-01-19T02:03:29.642Z,8.8
2023-01-19T02:04:29.521Z,8.8
2023-01-19T02:05:29.495Z,8.9
2023-01-19T02:06:29.502Z,8.8
2023-01-19T02:07:29.520Z,8.9
2023-01-19T02:08:29.523Z,8.8
2023-01-19T02:09:29.487Z,8.8
2023-01-19T02:10:29.515Z,8.8
2023-01-19T02:11:29.509Z,8.8
2023-01-19T02:12:29.548Z,8.8
2023-01-19T02:13:29.515Z,8.8
2023-01-19T02:14:29.476Z,8.8
2023-01-19T02:15:29.524Z,8.8
2023-01-19T02:16:29.528Z,8.9
2023-01-19T02:17:29.534Z,8.8
2023-01-19T02:18:29.489Z,8.9
2023-01-19T02:19:29.487Z,8.9
2023-01-19T02:20:29.525Z,8.8
2023-01-19T02:21:29.521Z,8.9
2023-01-19T02:22:29.512Z,8.8
2023-01-19T02:23:29.506Z,8.8
2023-01-19T02:24:29.531Z,8.8
2023-01-19T02:25:29.484Z,8.9
2023-01-19T02:26:29.502Z,8.9
2023-01-19T02:27:29.500Z,8.9
2023-01-19T02:28:29.503Z,8.9
2023-01-19T02:29:29.544Z,8.9
2023-01-19T02:30:29.516Z,8.9
2023-01-19T02:31:29.480Z,8.9
2023-01-19T02:32:29.509Z,8.9
2023-01-19T02:33:29.549Z,8.9
2023-01-19T02:34:29.493Z,8.9
2023-01-19T02:35:29.501Z,8.9
2023-01-19T02:36:29.492Z,8.9
2023-01-19T02:37:29.519Z,8.9
2023-01-19T02:38:29.523Z,8.9
2023-01-19T02:39:29.514Z,8.9
2023-01-19T02:40:29.486Z,8.9
2023-01-19T02:41:29.509Z,8.9
2023-01-19T02:42:29.531Z,8.8
2023-01-19T02:43:29.484Z,8.8
2023-01-19T02:44:29.524Z,8.9
2023-01-19T02:45:29.524Z,8.8
2023-01-19T02:46:29.491Z,8.8
2023-01-19T02:47:29.549Z,8.8
2023-01-19T02:48:29.486Z,8.8
2023-01-19T02:49:29.503Z,8.8
2023-01-19T02:50:29.653Z,8.8
2023-01-19T02:51:29.500Z,8.8
2023-01-19T02:52:29.532Z,8.8
2023-01-19T02:53:29.490Z,8.8
2023-01-19T02:54:29.471Z,8.7
2023-01-19T02:55:29.478Z,8.7
2023-01-19T02:56:29.500Z,8.7
2023-01-19T02:57:29.552Z,8.8
2023-01-19T02:58:29.500Z,8.8
2023-01-19T02:59:29.462Z,8.7
2023-01-19T03:00:29.495Z,8.7
2023-01-19T03:01:29.612Z,8.8
2023-01-19T03:02:29.599Z,8.7
2023-01-19T03:03:29.515Z,8.7
2023-01-19T03:04:29.499Z,8.8
2023-01-19T03:05:29.501Z,8.8
2023-01-19T03:06:29.478Z,8.8
2023-01-19T03:07:29.515Z,8.8
2023-01-19T03:08:29.519Z,8.8
2023-01-19T03:09:29.483Z,8.8
2023-01-19T03:10:29.471Z,8.8
2023-01-19T03:11:29.488Z,8.8
2023-01-19T03:12:29.499Z,8.8
2023-01-19T03:13:29.457Z,8.8
2023-01-19T03:14:29.489Z,8.8
2023-01-19T03:15:29.517Z,8.8
2023-01-19T03:16:29.498Z,8.8
2023-01-19T03:17:29.515Z,8.9
2023-01-19T03:18:29.495Z,8.8
2023-01-19T03:19:29.499Z,8.8
2023-01-19T03:20:29.491Z,8.8
2023-01-19T03:21:29.529Z,8.8
2023-01-19T03:22:30.452Z,8.8
2023-01-19T03:23:29.479Z,8.9
2023-01-19T03:24:29.514Z,8.8
2023-01-19T03:25:29.498Z,8.8
2023-01-19T03:26:29.463Z,8.8
2023-01-19T03:27:29.535Z,8.8
2023-01-19T03:28:29.525Z,8.8
2023-01-19T03:29:29.493Z,8.7
2023-01-19T03:30:29.520Z,8.8
2023-01-19T03:31:29.491Z,8.7
2023-01-19T03:32:29.513Z,8.8
2023-01-19T03:33:29.501Z,8.8
2023-01-19T03:34:29.497Z,8.8
2023-01-19T03:35:29.507Z,8.8
2023-01-19T03:36:29.476Z,8.8
2023-01-19T03:37:29.517Z,8.8
2023-01-19T03:38:29.476Z,8.8
2023-01-19T03:39:29.492Z,8.8
2023-01-19T03:40:29.499Z,8.8
2023-01-19T03:41:29.463Z,8.8
2023-01-19T03:42:29.501Z,8.8
2023-01-19T03:43:29.496Z,8.8
2023-01-19T03:44:29.506Z,8.8
2023-01-19T03:45:29.520Z,8.8
2023-01-19T03:46:29.535Z,8.8
2023-01-19T03:47:29.522Z,8.8
2023-01-19T03:48:29.519Z,8.8
2023-01-19T03:49:29.503Z,8.8
2023-01-19T03:50:29.524Z,8.8
2023-01-19T03:51:29.484Z,8.8
2023-01-19T03:52:29.556Z,8.8
2023-01-19T03:53:29.490Z,8.8
2023-01-19T03:54:29.485Z,8.8
2023-01-19T03:55:29.500Z,8.8
2023-01-19T03:56:29.453Z,8.8
2023-01-19T03:57:29.491Z,8.9
2023-01-19T03:58:29.472Z,8.8
2023-01-19T03:59:29.493Z,8.8
2023-01-19T04:00:29.473Z,8.8
2023-01-19T04:01:29.626Z,8.8
2023-01-19T04:02:29.579Z,8.8
2023-01-19T04:03:29.483Z,8.8
2023-01-19T04:04:29.490Z,8.8
2023-01-19T04:05:29.478Z,8.7
2023-01-19T04:06:29.496Z,8.8
2023-01-19T04:07:29.538Z,8.8
2023-01-19T04:08:29.465Z,8.8
2023-01-19T04:09:29.453Z,8.6
2023-01-19T04:10:29.484Z,8.7
2023-01-19T04:11:29.495Z,8.7
2023-01-19T04:12:29.506Z,8.7
2023-01-19T04:13:29.461Z,8.7
2023-01-19T04:14:29.524Z,8.8
2023-01-19T04:15:29.487Z,8.8
2023-01-19T04:16:29.461Z,8.8
2023-01-19T04:17:29.483Z,8.8
2023-01-19T04:18:29.472Z,8.8
2023-01-19T04:19:29.474Z,8.7
2023-01-19T04:20:29.479Z,8.8
2023-01-19T04:21:29.448Z,8.8
2023-01-19T04:22:29.456Z,8.8
2023-01-19T04:23:29.467Z,8.8
2023-01-19T04:24:29.473Z,8.8
2023-01-19T04:25:29.492Z,8.8
2023-01-19T04:26:29.458Z,8.8
2023-01-19T04:27:29.500Z,8.8
2023-01-19T04:28:29.498Z,8.8
2023-01-19T04:29:29.475Z,8.8
2023-01-19T04:30:29.493Z,8.8
2023-01-19T04:31:29.542Z,8.8
2023-01-19T04:32:29.572Z,8.8
2023-01-19T04:33:29.495Z,8.8
2023-01-19T04:34:29.469Z,8.8
2023-01-19T04:35:29.464Z,8.8
2023-01-19T04:36:29.476Z,8.8
2023-01-19T04:37:29.487Z,8.8
2023-01-19T04:38:29.471Z,8.8
2023-01-19T04:39:29.495Z,8.8
2023-01-19T04:40:29.481Z,8.8
2023-01-19T04:41:31.053Z,8.8
2023-01-19T04:42:29.471Z,8.8
2023-01-19T04:43:29.473Z,8.8
2023-01-19T04:44:29.477Z,8.8
2023-01-19T04:45:29.475Z,8.8
2023-01-19T04:46:29.523Z,8.8
2023-01-19T04:47:29.476Z,8.8
2023-01-19T04:48:29.467Z,8.8
2023-01-19T04:49:29.487Z,8.8
2023-01-19T04:50:29.476Z,8.8
2023-01-19T04:51:29.470Z,8.8
2023-01-19T04:52:29.495Z,8.8
2023-01-19T04:53:29.502Z,8.8
2023-01-19T04:54:29.482Z,8.8
2023-01-19T04:55:29.461Z,8.8
2023-01-19T04:56:29.463Z,8.8
2023-01-19T04:57:29.685Z,8.8
2023-01-19T04:58:29.482Z,8.8
2023-01-19T04:59:29.435Z,8.8
2023-01-19T05:00:29.482Z,8.8
2023-01-19T05:01:29.624Z,8.8
2023-01-19T05:02:29.535Z,8.8
2023-01-19T05:03:29.503Z,8.8
2023-01-19T05:04:29.488Z,8.8
2023-01-19T05:05:29.453Z,8.8
2023-01-19T05:06:29.477Z,8.8
2023-01-19T05:07:29.497Z,8.8
2023-01-19T05:08:29.467Z,8.8
2023-01-19T05:09:29.457Z,8.8
2023-01-19T05:10:29.452Z,8.8
2023-01-19T05:11:29.456Z,8.8
2023-01-19T05:12:29.496Z,8.8
2023-01-19T05:13:29.478Z,8.8
2023-01-19T05:14:29.472Z,8.8
2023-01-19T05:15:29.460Z,8.8
2023-01-19T05:16:29.577Z,8.8
2023-01-19T05:17:29.506Z,8.8
2023-01-19T05:18:29.448Z,8.8
2023-01-19T05:19:29.467Z,8.7
2023-01-19T05:20:29.471Z,8.7
2023-01-19T05:21:29.463Z,8.7
2023-01-19T05:22:29.484Z,8.8
2023-01-19T05:23:29.441Z,8.8
2023-01-19T05:24:29.458Z,8.8
2023-01-19T05:25:29.462Z,8.8
2023-01-19T05:26:29.477Z,8.8
2023-01-19T05:27:29.475Z,8.8
2023-01-19T05:28:29.468Z,8.7
2023-01-19T05:29:29.498Z,8.7
2023-01-19T05:30:29.467Z,8.7
2023-01-19T05:31:29.634Z,8.6
2023-01-19T05:32:29.486Z,8.7
2023-01-19T05:33:29.477Z,8.6
2023-01-19T05:34:29.452Z,8.6
2023-01-19T05:35:35.602Z,8.7
2023-01-19T05:36:30.886Z,8.6
2023-01-19T05:37:29.501Z,8.6
2023-01-19T05:38:35.160Z,8.6
2023-01-19T05:39:29.477Z,8.6
2023-01-19T05:40:29.470Z,8.6
2023-01-19T05:41:29.469Z,8.6
2023-01-19T05:42:31.916Z,8.6
2023-01-19T05:43:29.436Z,8.6
2023-01-19T05:44:29.472Z,8.6
2023-01-19T05:45:29.444Z,8.5
2023-01-19T05:46:29.468Z,8.5
2023-01-19T05:47:29.495Z,8.6
2023-01-19T05:48:29.463Z,8.5
2023-01-19T05:49:29.462Z,8.6
2023-01-19T05:50:29.456Z,8.6
2023-01-19T05:51:29.456Z,8.6
2023-01-19T05:52:29.504Z,8.6
2023-01-19T05:53:29.475Z,8.6
2023-01-19T05:54:29.456Z,8.6
2023-01-19T05:55:29.440Z,8.6
2023-01-19T05:56:29.464Z,8.6
2023-01-19T05:57:29.441Z,8.6
2023-01-19T05:58:29.487Z,8.6
2023-01-19T05:59:29.459Z,8.6
2023-01-19T06:00:29.472Z,8.6
2023-01-19T06:01:29.468Z,8.6
2023-01-19T06:02:29.546Z,8.6
2023-01-19T06:03:29.613Z,8.6
2023-01-19T06:04:29.435Z,8.6
2023-01-19T06:05:29.469Z,8.6
2023-01-19T06:06:29.441Z,8.6
2023-01-19T06:07:29.448Z,8.7
2023-01-19T06:08:29.460Z,8.6
2023-01-19T06:09:29.483Z,8.6
2023-01-19T06:10:29.468Z,8.5
2023-01-19T06:11:29.443Z,8.4
2023-01-19T06:12:29.443Z,8.5
2023-01-19T06:13:29.440Z,8.5
2023-01-19T06:14:29.486Z,8.6
2023-01-19T06:15:29.449Z,8.6
2023-01-19T06:16:29.506Z,8.6
2023-01-19T06:17:29.460Z,8.6
2023-01-19T06:18:29.438Z,8.6
2023-01-19T06:19:29.458Z,8.6
2023-01-19T06:20:29.454Z,8.6
2023-01-19T06:21:29.440Z,8.6
2023-01-19T06:22:29.447Z,8.6
2023-01-19T06:23:29.469Z,8.6
2023-01-19T06:24:29.451Z,8.6
2023-01-19T06:25:29.484Z,8.5
2023-01-19T06:26:29.427Z,8.6
2023-01-19T06:27:29.455Z,8.6
2023-01-19T06:28:29.443Z,8.6
2023-01-19T06:29:29.541Z,8.5
2023-01-19T06:30:29.481Z,8.6
2023-01-19T06:31:29.523Z,8.6
2023-01-19T06:32:29.446Z,8.5
2023-01-19T06:33:29.613Z,8.4
2023-01-19T06:34:29.483Z,8.5
2023-01-19T06:35:29.435Z,8.4
2023-01-19T06:36:29.418Z,8.4
2023-01-19T06:37:29.461Z,8.3
2023-01-19T06:38:29.427Z,8.4
2023-01-19T06:39:29.479Z,8.4
2023-01-19T06:40:29.447Z,8.3
2023-01-19T06:41:29.442Z,8.4
2023-01-19T06:42:29.447Z,8.4
2023-01-19T06:43:29.439Z,8.4
2023-01-19T06:44:29.461Z,8.4
2023-01-19T06:45:29.474Z,8.3
2023-01-19T06:46:29.484Z,8.3
2023-01-19T06:47:29.456Z,8.3
2023-01-19T06:48:29.426Z,8.3
2023-01-19T06:49:29.441Z,8.3
2023-01-19T06:50:29.454Z,8.3
2023-01-19T06:51:29.443Z,8.3
2023-01-19T06:52:29.466Z,8.3
2023-01-19T06:53:29.427Z,8.3
2023-01-19T06:54:29.462Z,8.3
2023-01-19T06:55:29.454Z,8.3
2023-01-19T06:56:29.426Z,8.3
2023-01-19T06:57:29.431Z,8.3
2023-01-19T06:58:29.450Z,8.2
2023-01-19T06:59:29.458Z,8.3
2023-01-19T07:00:29.452Z,8.3
2023-01-19T07:01:29.513Z,8.3
2023-01-19T07:02:29.691Z,8.2
2023-01-19T07:03:29.468Z,8.2
2023-01-19T07:04:29.437Z,8.3
2023-01-19T07:05:29.466Z,8.3
2023-01-19T07:06:29.465Z,8.2
2023-01-19T07:07:29.433Z,8.3
2023-01-19T07:08:29.436Z,8.2
2023-01-19T07:09:29.415Z,8.2
2023-01-19T07:11:25.799Z,8.2
2023-01-19T07:11:41.261Z,8.3
2023-01-19T07:12:41.239Z,8.3
2023-01-19T07:13:41.213Z,8.2
2023-01-19T07:14:41.262Z,8.1
2023-01-19T07:15:41.258Z,8.1
2023-01-19T07:16:41.457Z,8.1
2023-01-19T07:17:41.199Z,8.1
2023-01-19T07:18:41.227Z,8.2
2023-01-19T07:19:41.242Z,8.2
2023-01-19T07:20:41.218Z,8.2
2023-01-19T07:21:41.241Z,8.2
2023-01-19T07:22:41.215Z,8.2
2023-01-19T07:23:41.257Z,8.2
2023-01-19T07:24:41.238Z,8.2
2023-01-19T07:25:41.229Z,8.2
2023-01-19T07:26:41.263Z,8.3
2023-01-19T07:27:41.221Z,8.3
2023-01-19T07:28:41.221Z,8.3
2023-01-19T07:29:41.224Z,8.2
2023-01-19T07:30:41.302Z,8.2
2023-01-19T07:31:41.344Z,8.2
2023-01-19T07:32:41.218Z,8.3
2023-01-19T07:33:41.267Z,8.3
2023-01-19T07:34:41.217Z,8.3
2023-01-19T07:35:41.226Z,8.3
2023-01-19T07:36:41.233Z,8.3
2023-01-19T07:37:41.236Z,8.3
2023-01-19T07:38:41.282Z,8.3
2023-01-19T07:39:41.228Z,8.3
2023-01-19T07:40:41.228Z,8.3
2023-01-19T07:41:41.229Z,8.2
2023-01-19T07:42:41.219Z,8.3
2023-01-19T07:43:41.249Z,8.1
2023-01-19T07:44:41.236Z,8.1
2023-01-19T07:45:41.344Z,8.1
2023-01-19T07:46:41.208Z,8.1
2023-01-19T07:47:41.226Z,8.1
2023-01-19T07:48:41.252Z,8.1
2023-01-19T07:49:41.264Z,8.1
2023-01-19T07:50:41.235Z,8.1
2023-01-19T07:51:41.238Z,8.1
2023-01-19T07:52:41.255Z,8.1
2023-01-19T07:53:41.207Z,8.2
2023-01-19T07:54:41.205Z,8.2
2023-01-19T07:55:41.231Z,8.2
2023-01-19T07:56:41.238Z,8.2
2023-01-19T07:57:41.218Z,8.1
2023-01-19T07:58:41.241Z,8.2
2023-01-19T07:59:41.245Z,8.2
2023-01-19T08:00:41.228Z,8.1
2023-01-19T08:01:41.443Z,8.2
2023-01-19T08:02:41.235Z,8.2
2023-01-19T08:03:41.268Z,8.2
2023-01-19T08:04:41.363Z,8.3
2023-01-19T08:05:41.237Z,8.3
2023-01-19T08:06:41.224Z,8.2
2023-01-19T08:07:41.238Z,8.2
2023-01-19T08:08:41.208Z,8.2
2023-01-19T08:09:41.207Z,8.1
2023-01-19T08:10:41.249Z,8.2
2023-01-19T08:11:41.248Z,8.2
2023-01-19T08:12:41.245Z,8.2
2023-01-19T08:13:41.333Z,8.1
2023-01-19T08:14:41.246Z,8.3
2023-01-19T08:15:41.236Z,8.3
2023-01-19T08:16:41.245Z,8.2
2023-01-19T08:17:41.242Z,8.3
2023-01-19T08:18:41.224Z,8.3
2023-01-19T08:19:41.647Z,8.3
2023-01-19T08:20:41.186Z,8.4
2023-01-19T08:21:41.181Z,8.3
2023-01-19T08:22:41.261Z,8.3
2023-01-19T08:23:41.431Z,8.3
2023-01-19T08:24:41.225Z,8.4
2023-01-19T08:25:41.196Z,8.4
2023-01-19T08:26:41.199Z,8.4
2023-01-19T08:27:41.230Z,8.4
2023-01-19T08:28:41.203Z,8.4
2023-01-19T08:29:41.262Z,8.4
2023-01-19T08:30:41.364Z,8.4
2023-01-19T08:31:41.330Z,8.4
2023-01-19T08:32:41.249Z,8.4
2023-01-19T08:33:41.227Z,8.4
2023-01-19T08:34:41.233Z,8.4
2023-01-19T08:35:41.217Z,8.3
2023-01-19T08:36:41.269Z,8.3
2023-01-19T08:37:41.205Z,8.3
2023-01-19T08:38:41.200Z,8.3
2023-01-19T08:39:41.316Z,8.4
2023-01-19T08:40:41.191Z,8.4
2023-01-19T08:41:41.179Z,8.3
2023-01-19T08:42:41.232Z,8.2
2023-01-19T08:43:41.227Z,8.3
2023-01-19T08:44:46.793Z,8.2
2023-01-19T08:45:41.205Z,8.1
2023-01-19T08:46:41.309Z,8.1
2023-01-19T08:47:41.311Z,8.1
2023-01-19T08:48:41.221Z,8.1
2023-01-19T08:49:41.265Z,8.1
2023-01-19T08:50:41.194Z,8.1
2023-01-19T08:51:41.274Z,8.1
2023-01-19T08:52:41.205Z,8.1
2023-01-19T08:53:41.203Z,8.1
2023-01-19T08:54:41.208Z,8.1
2023-01-19T08:55:41.207Z,8
2023-01-19T08:56:41.205Z,8
2023-01-19T08:57:41.182Z,8
2023-01-19T08:58:41.188Z,8
2023-01-19T08:59:41.190Z,8
2023-01-19T09:00:41.212Z,8
2023-01-19T09:01:41.337Z,8.1
2023-01-19T09:02:41.232Z,8.1
2023-01-19T09:03:41.193Z,8.1
2023-01-19T09:04:41.212Z,8.1
2023-01-19T09:05:41.237Z,8.2
2023-01-19T09:06:41.208Z,8.2
2023-01-19T09:07:41.238Z,8.2
2023-01-19T09:08:41.186Z,8.2
2023-01-19T09:09:41.203Z,8.2
2023-01-19T09:10:41.282Z,8.3
2023-01-19T09:11:41.209Z,8.3
2023-01-19T09:12:41.208Z,8.3
2023-01-19T09:13:41.384Z,8.3
2023-01-19T09:14:41.213Z,8.3
2023-01-19T09:15:41.247Z,8.2
2023-01-19T09:16:41.190Z,8.3
2023-01-19T09:17:41.222Z,8.2
2023-01-19T09:18:41.194Z,8.3
2023-01-19T09:19:41.195Z,8.3
2023-01-19T09:20:41.189Z,8.3
2023-01-19T09:21:41.192Z,8.3
2023-01-19T09:22:41.169Z,8.2
2023-01-19T09:23:41.213Z,8.2
2023-01-19T09:24:41.185Z,8.3
2023-01-19T09:25:41.170Z,8.3
2023-01-19T09:26:41.206Z,8.3
2023-01-19T09:27:41.188Z,8.4
2023-01-19T09:28:41.204Z,8.4
2023-01-19T09:29:41.195Z,8.4
2023-01-19T09:30:41.282Z,8.3
2023-01-19T09:31:41.327Z,8.4
2023-01-19T09:32:41.199Z,8.4
2023-01-19T09:33:41.189Z,8.3
2023-01-19T09:34:41.186Z,8.3
2023-01-19T09:35:41.210Z,8.3
2023-01-19T09:36:41.220Z,8.4
2023-01-19T09:37:41.204Z,8.4
2023-01-19T09:38:41.172Z,8.4
2023-01-19T09:39:41.244Z,8.4
2023-01-19T09:40:42.113Z,8.4
2023-01-19T09:41:41.193Z,8.4
2023-01-19T09:42:41.217Z,8.3
2023-01-19T09:43:41.204Z,8.3
2023-01-19T09:44:41.217Z,8.2
2023-01-19T09:45:41.217Z,8.2
2023-01-19T09:46:41.277Z,8.2
2023-01-19T09:47:41.234Z,8.2
2023-01-19T09:48:41.203Z,8.1
2023-01-19T09:49:41.197Z,8.1
2023-01-19T09:50:42.922Z,8.1
2023-01-19T09:51:41.241Z,8.1
2023-01-19T09:52:41.227Z,8.1
2023-01-19T09:53:41.183Z,8.1
2023-01-19T09:54:41.185Z,8.2
2023-01-19T09:55:41.164Z,8.2
2023-01-19T09:56:41.185Z,8.3
2023-01-19T09:57:41.180Z,8.3
2023-01-19T09:58:41.220Z,8.3
2023-01-19T09:59:41.194Z,8.2
2023-01-19T10:00:41.189Z,8.2
2023-01-19T10:01:41.230Z,8.1
2023-01-19T10:02:41.353Z,8.2
2023-01-19T10:03:41.200Z,8.2
2023-01-19T10:04:41.201Z,8.2
2023-01-19T10:05:41.190Z,8.2
2023-01-19T10:06:41.204Z,8.2
2023-01-19T10:07:41.178Z,8.1
2023-01-19T10:08:41.171Z,8.2
2023-01-19T10:09:41.183Z,8.2
2023-01-19T10:10:41.186Z,8.2
2023-01-19T10:11:52.057Z,8.2
2023-01-19T10:12:41.207Z,8.2
2023-01-19T10:13:41.179Z,8.3
2023-01-19T10:14:41.196Z,8.2
2023-01-19T10:15:41.165Z,8.2
2023-01-19T10:16:41.194Z,8.1
2023-01-19T10:17:41.228Z,8.1
2023-01-19T10:18:41.202Z,8.1
2023-01-19T10:19:41.169Z,8
2023-01-19T10:20:41.173Z,8
2023-01-19T10:21:41.163Z,8
2023-01-19T10:22:41.207Z,8
2023-01-19T10:23:41.223Z,8.1
2023-01-19T10:24:41.192Z,8
2023-01-19T10:25:41.255Z,8.1
2023-01-19T10:26:41.181Z,8.1
2023-01-19T10:27:41.202Z,8.1
2023-01-19T10:28:41.216Z,8.1
2023-01-19T10:29:41.163Z,8.1
2023-01-19T10:30:41.200Z,8.2
2023-01-19T10:31:41.267Z,8.3
2023-01-19T10:32:41.188Z,8.3
2023-01-19T10:33:41.242Z,8.3
2023-01-19T10:34:41.204Z,8.3
2023-01-19T10:35:41.193Z,8.3
2023-01-19T10:36:41.174Z,8.3
2023-01-19T10:37:41.163Z,8.2
2023-01-19T10:38:41.205Z,8.3
2023-01-19T10:39:41.200Z,8.3
2023-01-19T10:40:41.188Z,8.3
2023-01-19T10:41:41.199Z,8.3
2023-01-19T10:42:41.170Z,8.3
2023-01-19T10:43:41.201Z,8.4
2023-01-19T10:44:41.213Z,8.3
2023-01-19T10:45:41.238Z,8.3
2023-01-19T10:46:41.227Z,8.4
2023-01-19T10:47:41.152Z,8.4
2023-01-19T10:48:41.261Z,8.4
2023-01-19T10:49:41.254Z,8.4
2023-01-19T10:50:41.195Z,8.3
2023-01-19T10:51:41.200Z,8.4
2023-01-19T10:52:41.244Z,8.4
2023-01-19T10:53:41.257Z,8.4
2023-01-19T10:54:41.192Z,8.4
2023-01-19T10:55:41.241Z,8.4
2023-01-19T10:56:41.255Z,8.4
2023-01-19T10:57:41.210Z,8.3
2023-01-19T10:58:41.196Z,8.4
2023-01-19T10:59:41.184Z,8.3
2023-01-19T11:00:41.250Z,8.3
2023-01-19T11:01:41.364Z,8.3
2023-01-19T11:02:41.177Z,8.3
2023-01-19T11:03:41.193Z,8.2
2023-01-19T11:04:41.181Z,8.2
2023-01-19T11:05:41.157Z,8.2
2023-01-19T11:06:41.199Z,8.1
2023-01-19T11:07:41.190Z,8.1
2023-01-19T11:08:41.152Z,8.1
2023-01-19T11:09:41.185Z,8.1
2023-01-19T11:10:41.147Z,8.1
2023-01-19T11:11:41.184Z,8.1
2023-01-19T11:12:41.176Z,8.1
2023-01-19T11:13:41.166Z,8.1
2023-01-19T11:14:41.165Z,8.1
2023-01-19T11:15:41.212Z,8.1
2023-01-19T11:16:41.274Z,8.1
2023-01-19T11:17:41.166Z,8
2023-01-19T11:18:41.175Z,8
2023-01-19T11:19:41.164Z,7.9
2023-01-19T11:20:41.145Z,7.9
2023-01-19T11:21:41.198Z,7.9
2023-01-19T11:22:41.143Z,7.9
2023-01-19T11:23:41.163Z,7.9
2023-01-19T11:24:41.212Z,7.9
2023-01-19T11:25:41.187Z,7.8
2023-01-19T11:26:41.199Z,7.9
2023-01-19T11:27:41.213Z,7.9
2023-01-19T11:28:43.570Z,7.9
2023-01-19T11:29:41.205Z,7.9
2023-01-19T11:30:41.221Z,7.9
2023-01-19T11:31:41.227Z,7.8
2023-01-19T11:32:41.157Z,7.8
2023-01-19T11:33:41.153Z,7.8
2023-01-19T11:34:41.269Z,7.8
2023-01-19T11:35:41.190Z,7.9
2023-01-19T11:36:41.191Z,7.8
2023-01-19T11:37:41.177Z,7.8
2023-01-19T11:38:41.167Z,7.8
2023-01-19T11:39:41.189Z,7.8
2023-01-19T11:40:41.150Z,7.8
2023-01-19T11:41:41.170Z,7.8
2023-01-19T11:42:41.173Z,7.8
2023-01-19T11:43:49.092Z,7.8
2023-01-19T11:44:41.127Z,7.8
2023-01-19T11:45:41.233Z,7.8
2023-01-19T11:46:41.154Z,7.9
2023-01-19T11:47:41.212Z,7.8
2023-01-19T11:48:41.174Z,7.8
2023-01-19T11:49:41.153Z,7.8
2023-01-19T11:50:41.161Z,7.8
2023-01-19T11:51:41.160Z,7.8
2023-01-19T11:52:43.041Z,7.8
2023-01-19T11:53:41.175Z,7.8
2023-01-19T11:54:41.187Z,7.8
2023-01-19T11:55:41.219Z,7.8
2023-01-19T11:56:41.132Z,7.8
2023-01-19T11:57:41.194Z,7.8
2023-01-19T11:58:41.153Z,7.8
2023-01-19T11:59:41.146Z,7.8
2023-01-19T12:00:41.177Z,7.8
2023-01-19T12:01:41.137Z,7.8
2023-01-19T12:02:41.177Z,7.8
2023-01-19T12:03:41.184Z,7.8
2023-01-19T12:04:41.162Z,7.8
2023-01-19T12:05:41.204Z,7.8
2023-01-19T12:06:41.140Z,7.8
2023-01-19T12:07:41.143Z,7.8
2023-01-19T12:08:41.190Z,7.8
2023-01-19T12:09:41.155Z,7.8
2023-01-19T12:10:41.140Z,7.8
2023-01-19T12:11:41.168Z,7.8
2023-01-19T12:12:41.120Z,7.8
2023-01-19T12:13:41.165Z,7.8
2023-01-19T12:14:41.164Z,7.8
2023-01-19T12:15:41.152Z,7.8
2023-01-19T12:16:41.218Z,7.7
2023-01-19T12:17:41.169Z,7.7
2023-01-19T12:18:41.153Z,7.8
2023-01-19T12:19:41.172Z,7.8
2023-01-19T12:20:41.276Z,7.8
2023-01-19T12:21:41.175Z,7.8
2023-01-19T12:22:41.142Z,7.8
2023-01-19T12:23:41.220Z,7.8
2023-01-19T12:24:41.160Z,7.8
2023-01-19T12:25:41.173Z,7.8
2023-01-19T12:26:41.169Z,7.8
2023-01-19T12:27:41.131Z,7.8
2023-01-19T12:28:41.197Z,7.8
2023-01-19T12:29:41.545Z,7.8
2023-01-19T12:30:41.333Z,7.8
2023-01-19T12:31:41.293Z,7.8
2023-01-19T12:32:41.156Z,7.8
2023-01-19T12:33:41.187Z,7.8
2023-01-19T12:34:41.164Z,7.8
2023-01-19T12:35:41.168Z,7.8
2023-01-19T12:36:41.130Z,7.8
2023-01-19T12:37:41.168Z,7.8
2023-01-19T12:38:41.156Z,7.8
2023-01-19T12:39:41.175Z,7.8
2023-01-19T12:40:41.163Z,7.8
2023-01-19T12:41:41.138Z,7.8
2023-01-19T12:42:41.152Z,7.8
2023-01-19T12:43:41.171Z,7.8
2023-01-19T12:44:41.153Z,7.7
2023-01-19T12:45:41.144Z,7.8
2023-01-19T12:46:41.120Z,7.8
2023-01-19T12:47:41.154Z,7.8
2023-01-19T12:48:41.133Z,7.7
2023-01-19T12:49:41.144Z,7.7
2023-01-19T12:50:41.152Z,7.8
2023-01-19T12:51:41.147Z,7.8
2023-01-19T12:52:41.184Z,7.8
2023-01-19T12:53:41.157Z,7.7
2023-01-19T12:54:41.187Z,7.8
2023-01-19T12:55:41.176Z,7.7
2023-01-19T12:56:41.195Z,7.7
2023-01-19T12:57:41.158Z,7.8
2023-01-19T12:58:41.157Z,7.7
2023-01-19T12:59:41.150Z,7.7
2023-01-19T13:00:41.178Z,7.7
2023-01-19T13:01:41.272Z,7.7
2023-01-19T13:02:41.242Z,7.7
2023-01-19T13:03:41.169Z,7.7
2023-01-19T13:04:41.545Z,7.7
2023-01-19T13:05:41.182Z,7.7
2023-01-19T13:06:41.150Z,7.7
2023-01-19T13:07:41.220Z,7.7
2023-01-19T13:08:41.167Z,7.7
2023-01-19T13:09:41.151Z,7.7
2023-01-19T13:10:41.188Z,7.7
2023-01-19T13:11:42.013Z,7.7
2023-01-19T13:12:41.138Z,7.6
2023-01-19T13:13:41.129Z,7.7
2023-01-19T13:14:41.137Z,7.7
2023-01-19T13:15:41.256Z,7.7
2023-01-19T13:16:41.149Z,7.7
2023-01-19T13:17:41.163Z,7.8
2023-01-19T13:18:41.196Z,7.8
2023-01-19T13:19:41.188Z,7.8
2023-01-19T13:20:41.165Z,7.7
2023-01-19T13:21:43.619Z,7.8
2023-01-19T13:22:41.172Z,7.8
2023-01-19T13:23:41.183Z,7.7
2023-01-19T13:24:41.128Z,7.8
2023-01-19T13:25:41.186Z,7.7
2023-01-19T13:26:41.197Z,7.7
2023-01-19T13:27:41.161Z,7.7
2023-01-19T13:28:41.133Z,7.7
2023-01-19T13:29:41.141Z,7.7
2023-01-19T13:30:41.346Z,7.7
2023-01-19T13:31:41.237Z,7.7
2023-01-19T13:32:41.166Z,7.7
2023-01-19T13:33:41.311Z,7.7
2023-01-19T13:34:41.144Z,7.6
2023-01-19T13:35:41.190Z,7.6
2023-01-19T13:36:41.133Z,7.6
2023-01-19T13:37:41.130Z,7.6
2023-01-19T13:38:41.131Z,7.6
2023-01-19T13:39:41.136Z,7.6
2023-01-19T13:40:41.190Z,7.6
2023-01-19T13:41:41.216Z,7.6
2023-01-19T13:42:41.164Z,7.6
2023-01-19T13:43:41.120Z,7.6
2023-01-19T13:44:41.151Z,7.6
2023-01-19T13:45:41.148Z,7.6
2023-01-19T13:46:41.213Z,7.6